Latest Weather Observations for Point Stuart

IDD60801

Issued at 2:01 pm CST Sunday 21 December 2014 (issued every 30 minutes, with the page automatically refreshed every 10 minutes)

About weather observations | Map of weather stations | Latest weather observations for NT | Other Formats
Station Details ID: 014254 Name: POINT STUART Lat: -12.24 Lon: 131.88 Height: 1.0 m
Data from the previous 72 hours. | See also: Recent months for locations in Northern Territory
Date/Time
CST
Temp
°C
App
Temp
°C
Dew
Point
Rel
Hum
%
Delta-T
°C
Wind Press
QNH
hPa
Press
MSL
hPa
Rain
since 9 am
mm
Dir
 
Spd
km/h
Gust
km/h
Spd
kts
Gust
kts
21/02:00pm 33.5 38.2 24.9 60 6.1 NW 9 15 5 8 1006.7 - 0.0
21/01:30pm 33.0 37.4 25.0 63 5.7 WNW 11 15 6 8 1007.1 - 0.0
21/01:00pm 32.2 37.6 25.5 67 4.8 WNW 7 13 4 7 1007.7 - 0.0
21/12:30pm 32.2 38.0 26.0 70 4.4 NNW 7 11 4 6 1008.0 - 0.0
21/12:00pm 31.6 37.2 25.5 70 4.3 NW 6 11 3 6 1008.4 1008.4 0.0
21/11:30am 30.6 35.9 25.2 73 3.8 NW 7 15 4 8 1008.9 - 0.0
21/11:00am 30.0 35.2 25.1 75 3.4 ESE 7 11 4 6 1009.4 - 0.0
21/10:30am 29.0 33.7 25.6 82 2.4 SE 11 17 6 9 1010.0 - 0.0
21/10:00am 28.5 30.6 25.3 83 2.2 SE 24 30 13 16 1010.6 - 0.0
21/09:30am 29.5 33.2 26.3 83 2.3 ESE 19 22 10 12 1010.3 - 0.0
21/09:00am 29.6 34.7 26.2 82 2.4 ESE 11 15 6 8 1010.1 1010.1 0.0
21/08:30am 29.5 35.4 26.7 85 2.0 SE 9 11 5 6 1009.7 - 0.0
21/08:00am 28.5 34.6 26.5 89 1.4 SE 7 11 4 6 1009.0 - 0.0
21/07:30am 27.9 33.8 26.7 93 0.9 SE 9 13 5 7 1008.7 - 0.0
21/07:00am 27.6 33.5 26.7 95 0.6 ESE 9 11 5 6 1008.4 - 0.0
21/06:30am 27.5 34.2 26.6 95 0.6 SSW 4 7 2 4 1007.6 - 0.0
21/06:00am 27.7 33.0 25.9 90 1.3 SSE 9 11 5 6 1007.8 1007.8 0.0
21/05:30am 29.3 32.4 23.5 71 4.0 WNW 13 15 7 8 1007.3 - 0.0
21/05:00am 29.5 33.0 24.8 76 3.3 NW 15 19 8 10 1007.0 - 0.0
21/04:30am 29.4 32.9 24.9 77 3.2 WNW 15 20 8 11 1006.6 - 0.0
21/04:00am 29.6 33.4 25.3 77 3.0 NW 15 20 8 11 1006.8 - 0.0
21/03:30am 29.7 33.8 25.7 79 2.8 NW 15 20 8 11 1006.6 - 0.0
21/03:00am 29.7 33.1 25.9 80 2.7 NW 19 26 10 14 1006.3 1006.3 0.0
21/02:30am 29.9 33.5 26.1 80 2.7 NW 19 24 10 13 1006.4 - 0.0
21/02:00am 30.0 34.0 26.8 83 2.3 WNW 19 24 10 13 1006.8 - 0.0
21/01:30am 30.0 34.3 27.2 85 2.0 NW 19 24 10 13 1007.2 - 0.0
21/01:00am 30.1 34.7 27.1 84 2.2 NW 17 24 9 13 1007.6 - 0.0
21/12:30am 30.3 35.0 27.3 84 2.2 NW 17 22 9 12 1007.8 - 0.0
21/12:00am 30.1 34.5 27.3 85 2.0 NNW 19 26 10 14 1008.1 1008.1 0.0
 
Date/Time
CST
Temp
°C
App
Temp
°C
Dew
Point
Rel
Hum
%
Delta-T
°C
Wind Press
QNH
hPa
Press
MSL
hPa
Rain
since 9 am
mm
Dir
 
Spd
km/h
Gust
km/h
Spd
kts
Gust
kts
20/11:30pm 30.3 35.3 27.1 83 2.3 NNW 15 20 8 11 1008.2 - 0.0
20/11:00pm 30.3 35.5 26.9 82 2.4 NNW 13 20 7 11 1008.1 - 0.0
20/10:30pm 30.5 35.6 26.2 78 3.1 N 11 19 6 10 1007.6 - 0.0
20/10:00pm 30.3 34.9 25.4 75 3.5 NNW 11 17 6 9 1007.4 - 0.0
20/09:30pm 30.2 34.8 24.8 73 3.8 N 9 15 5 8 1007.2 - 0.0
20/09:00pm 30.1 33.9 23.5 67 4.6 N 9 15 5 8 1006.7 1006.7 0.0
20/08:30pm 30.1 33.9 23.5 67 4.6 NNW 9 13 5 7 1006.5 - 0.0
20/08:00pm 30.4 34.0 23.1 65 5.0 NNW 9 15 5 8 1006.3 - 0.0
20/07:30pm 30.6 34.3 23.3 65 5.0 N 9 11 5 6 1005.7 - 0.0
20/07:00pm 31.0 34.4 23.4 64 5.2 N 11 17 6 9 1005.2 - 0.0
20/06:30pm 31.6 35.0 23.4 61 5.7 NNW 11 15 6 8 1004.9 - 0.0
20/06:00pm 32.6 36.0 23.3 58 6.4 NNW 11 15 6 8 1004.8 1004.8 0.0
20/05:30pm 32.8 36.6 24.0 60 6.1 NNW 11 19 6 10 1004.6 - 0.0
20/05:00pm 34.3 38.0 23.9 54 7.3 NNW 11 19 6 10 1004.7 - 0.0
20/04:30pm 33.4 37.2 24.0 58 6.6 NNW 11 17 6 9 1004.6 - 0.0
20/04:00pm 34.2 38.0 24.7 57 6.7 NNW 13 19 7 10 1004.6 - 0.0
20/03:30pm 33.7 37.3 24.3 58 6.6 NNW 13 17 7 9 1005.1 - 0.0
20/03:00pm 34.2 38.2 25.6 61 6.1 NNW 15 20 8 11 1005.7 1005.7 0.0
20/02:30pm 33.4 37.1 25.1 61 5.9 NNW 15 20 8 11 1006.1 - 0.0
20/02:00pm 33.8 36.9 24.1 57 6.8 NW 15 20 8 11 1006.5 - 0.0
20/01:30pm 33.6 37.6 25.0 60 6.1 NW 13 19 7 10 1007.0 - 0.0
20/01:00pm 33.1 37.1 25.6 64 5.3 NW 15 19 8 10 1007.8 - 0.0
20/12:30pm 34.0 38.8 26.2 63 5.6 WNW 13 19 7 10 1008.1 - 0.0
20/12:00pm 32.6 37.4 25.7 67 4.9 NW 11 17 6 9 1008.6 1008.6 0.0
20/11:30am 32.3 37.4 25.6 67 4.8 NW 9 13 5 7 1008.9 - 0.0
20/11:00am 32.3 38.9 27.3 75 3.6 S 7 13 4 7 1009.2 - 0.0
20/10:30am 31.4 37.6 26.7 76 3.4 S 7 11 4 6 1009.6 - 0.0
20/10:00am 30.2 35.6 26.6 81 2.6 SSE 11 15 6 8 1009.9 - 0.0
20/09:30am 29.5 35.2 27.1 87 1.7 SSE 11 15 6 8 1010.1 - 0.0
20/09:00am 28.7 34.2 27.3 92 1.0 SSE 13 17 7 9 1010.0 1010.0 18.8
20/08:30am 28.1 32.9 27.4 96 0.5 S 17 22 9 12 1010.2 - 18.8
20/08:00am 27.8 34.1 27.3 97 0.4 S 9 11 5 6 1009.6 - 18.8
20/07:30am 27.1 33.8 27.1 100 0.0 S 6 11 3 6 1009.4 - 18.8
20/07:00am 26.3 32.3 26.3 100 0.0 S 7 9 4 5 1009.5 - 18.8
20/06:30am 25.9 30.0 25.7 99 0.1 SSW 15 19 8 10 1009.0 - 18.0
20/06:00am 25.8 27.6 25.5 98 0.2 S 26 30 14 16 1008.7 1008.7 14.8
20/05:30am 25.3 25.6 24.3 94 0.7 SW 30 33 16 18 1008.2 - 11.8
20/05:13am 27.7 28.9 25.7 89 1.4 W 30 35 16 19 1007.6 - 2.4
20/05:00am 28.9 34.4 26.1 85 2.0 WSW 9 17 5 9 1007.7 - 0.2
20/04:30am 29.6 34.4 26.2 82 2.4 WNW 13 19 7 10 1008.0 - 0.2
20/04:00am 29.5 33.3 25.9 81 2.6 WNW 17 22 9 12 1007.7 - 0.2
20/03:30am 29.6 33.4 26.4 83 2.3 WNW 19 22 10 12 1007.7 - 0.2
20/03:00am 29.4 33.4 26.2 83 2.3 NW 17 22 9 12 1007.5 1007.5 0.2
20/02:30am 29.5 34.1 26.5 84 2.1 NW 15 20 8 11 1008.1 - 0.2
20/02:00am 29.6 33.7 26.4 83 2.3 WNW 17 20 9 11 1008.2 - 0.2
20/01:30am 29.6 33.9 26.6 84 2.1 NW 17 20 9 11 1008.0 - 0.2
20/01:00am 29.5 33.1 26.5 84 2.1 WNW 20 26 11 14 1008.6 - 0.2
20/12:30am 29.0 33.6 26.6 87 1.7 NW 15 22 8 12 1009.3 - 0.0
20/12:00am 30.2 33.4 26.4 80 2.7 NW 22 30 12 16 1009.7 1009.7 0.0
 
Date/Time
CST
Temp
°C
App
Temp
°C
Dew
Point
Rel
Hum
%
Delta-T
°C
Wind Press
QNH
hPa
Press
MSL
hPa
Rain
since 9 am
mm
Dir
 
Spd
km/h
Gust
km/h
Spd
kts
Gust
kts
19/11:30pm 30.2 33.9 27.2 84 2.2 WNW 22 30 12 16 1009.6 - 0.0
19/11:00pm 30.4 33.9 26.3 79 2.9 WNW 20 26 11 14 1009.8 - 0.0
19/10:30pm 30.7 34.6 26.6 79 2.9 WNW 19 30 10 16 1009.8 - 0.0
19/10:00pm 30.8 36.2 27.2 81 2.6 NNW 13 20 7 11 1009.2 - 0.0
19/09:30pm 30.3 35.7 26.0 78 3.1 NNW 9 17 5 9 1009.2 - 0.0
19/09:00pm 30.4 34.5 25.7 76 3.3 NNW 15 20 8 11 1008.7 1008.7 0.0
19/08:30pm 30.4 34.5 25.2 74 3.7 NNW 13 20 7 11 1008.3 - 0.0
19/08:00pm 30.3 34.2 24.9 73 3.8 NNW 13 17 7 9 1008.0 - 0.0
19/07:30pm 30.7 34.4 24.6 70 4.3 NNW 13 17 7 9 1007.9 - 0.0
19/07:00pm 30.9 34.1 24.3 68 4.6 NNW 15 20 8 11 1006.8 - 0.0
19/06:30pm 31.6 35.1 25.5 70 4.3 NW 17 20 9 11 1006.3 - 0.0
19/06:00pm 32.7 37.4 25.5 66 5.1 NNW 11 17 6 9 1005.9 1005.9 0.0
19/05:30pm 32.8 36.5 24.5 61 5.8 NNW 13 20 7 11 1005.5 - 0.0
19/05:00pm 33.7 38.5 25.7 63 5.7 NNW 11 19 6 10 1005.7 - 0.0
19/04:30pm 34.0 38.4 25.7 62 5.9 N 13 19 7 10 1006.1 - 0.0
19/04:00pm 33.7 38.3 25.9 63 5.6 NNW 13 22 7 12 1006.2 - 0.0
19/03:30pm 33.5 37.2 25.7 63 5.6 NNW 17 24 9 13 1006.2 - 0.0
19/03:00pm 34.0 38.6 25.9 62 5.8 N 13 24 7 13 1007.0 1007.0 0.0
19/02:30pm 34.3 39.2 27.0 65 5.3 N 15 20 8 11 1007.4 - 0.0
19/02:00pm 34.5 39.7 26.9 64 5.5 NNW 13 20 7 11 1007.9 - 0.0
19/01:30pm 33.5 37.9 26.3 66 5.2 NNW 15 22 8 12 1008.3 - 0.0
19/01:00pm 34.1 39.8 27.1 67 5.1 NNW 11 20 6 11 1008.7 - 0.0
19/12:30pm 33.8 38.2 26.3 65 5.4 NW 15 20 8 11 1009.4 - 0.0
19/12:00pm 33.9 39.3 27.2 68 4.9 NNW 13 20 7 11 1009.6 1009.6 0.0
19/11:30am 33.0 38.3 26.5 68 4.7 N 11 17 6 9 1010.0 - 0.0
19/11:00am 33.1 38.2 26.1 66 5.0 NNW 11 17 6 9 1010.2 - 0.0
19/10:30am 33.2 38.9 27.0 70 4.5 NNW 11 17 6 9 1010.5 - 0.0
19/10:00am 32.8 38.3 26.8 70 4.3 NW 11 17 6 9 1010.6 - 0.0
19/09:30am 32.5 37.6 25.6 67 4.9 NW 9 15 5 8 1010.7 - 0.0
19/09:00am 31.7 36.5 25.1 68 4.7 WSW 9 11 5 6 1010.6 1010.6 8.2
19/08:30am 31.3 37.3 26.3 75 3.6 S 7 11 4 6 1010.7 - 8.2
19/08:00am 30.7 37.3 25.8 75 3.5 E 2 7 1 4 1010.2 - 8.2
19/07:30am 29.6 37.1 27.2 87 1.7 E 2 6 1 3 1010.0 - 8.2
19/07:00am 27.4 34.9 27.1 98 0.2 SSE 2 6 1 3 1009.6 - 8.2
19/06:30am 26.4 32.8 26.1 98 0.2 W 4 6 2 3 1009.3 - 8.2
19/06:00am 26.9 33.1 26.4 97 0.4 SSE 6 9 3 5 1009.1 1009.1 8.2
19/05:30am 26.9 32.2 26.4 97 0.4 WNW 11 15 6 8 1008.8 - 8.2
19/05:00am 26.5 31.8 24.9 91 1.1 NW 6 9 3 5 1008.7 - 6.6
19/04:30am 28.5 35.8 27.4 94 0.8 ENE 4 11 2 6 1008.3 - 0.2
19/04:00am 28.9 35.5 26.9 89 1.4 S 6 7 3 4 1008.2 - 0.0
19/03:30am 29.3 35.5 26.7 86 1.9 SW 7 13 4 7 1008.3 - 0.0
19/03:00am 29.1 36.3 26.7 87 1.7 SSW 2 6 1 3 1008.3 1008.3 0.0
19/02:30am 29.9 35.4 26.7 83 2.3 WNW 11 15 6 8 1008.4 - 0.0
19/02:00am 30.0 34.6 26.0 79 2.8 WNW 13 17 7 9 1008.5 - 0.0
19/01:30am 30.1 34.5 25.6 77 3.2 WNW 13 15 7 8 1008.4 - 0.0
19/01:00am 29.9 35.1 26.3 81 2.6 WNW 11 15 6 8 1008.4 - 0.0
19/12:30am 29.0 35.7 26.6 87 1.7 SW 4 7 2 4 1008.6 - 0.0
19/12:00am 29.0 35.1 26.2 85 2.0 WSW 6 7 3 4 1008.8 1008.8 0.0
 
Date/Time
CST
Temp
°C
App
Temp
°C
Dew
Point
Rel
Hum
%
Delta-T
°C
Wind Press
QNH
hPa
Press
MSL
hPa
Rain
since 9 am
mm
Dir
 
Spd
km/h
Gust
km/h
Spd
kts
Gust
kts
18/11:30pm 29.3 35.5 26.3 84 2.1 WSW 6 7 3 4 1009.1 - 0.0
18/11:00pm 29.7 35.5 26.1 81 2.6 W 7 9 4 5 1009.4 - 0.0
18/10:30pm 30.5 35.0 25.8 76 3.3 W 13 19 7 10 1009.3 - 0.0
18/10:00pm 30.6 34.2 26.1 77 3.2 WNW 19 24 10 13 1008.7 - 0.0
18/09:30pm 30.8 34.0 25.6 74 3.7 WNW 19 24 10 13 1008.4 - 0.0
18/09:00pm 30.8 33.8 25.2 72 4.0 WNW 19 24 10 13 1008.1 1008.1 0.0
18/08:30pm 30.8 33.9 25.4 73 3.8 WNW 19 24 10 13 1007.8 - 0.0
18/08:00pm 30.9 33.9 25.3 72 4.0 W 19 22 10 12 1007.5 - 0.0
18/07:30pm 31.1 34.7 26.1 75 3.6 NW 19 28 10 15 1007.2 - 0.0
18/07:00pm 31.3 35.7 25.6 71 4.0 NW 13 22 7 12 1006.9 - 0.0
18/06:30pm 31.8 35.7 25.4 69 4.5 NNW 15 20 8 11 1006.4 - 0.0
18/06:00pm 33.0 37.1 25.8 66 5.1 NNW 15 24 8 13 1006.1 1006.1 0.0
18/05:30pm 33.7 36.4 24.8 59 6.3 NNW 19 26 10 14 1006.1 - 0.0
18/05:00pm 34.0 37.0 24.6 58 6.6 NNW 17 24 9 13 1006.1 - 0.0
18/04:30pm 34.4 37.6 24.9 57 6.7 NNW 17 28 9 15 1005.9 - 0.0
18/04:00pm 34.8 36.9 23.8 53 7.7 NW 19 26 10 14 1006.2 - 0.0
18/03:30pm 35.0 36.9 23.7 52 7.9 NW 20 26 11 14 1006.7 - 0.0
18/03:00pm 35.4 38.0 24.0 51 8.0 NW 17 22 9 12 1007.0 1007.0 0.0
18/02:30pm 35.6 38.9 24.5 52 7.8 NW 15 22 8 12 1007.5 - 0.0

Other Formats:

Comma delimited format used in spreadsheet applications
http://www.bom.gov.au/fwo/IDD60801/IDD60801.94127.axf

JavaScript Object Notation format (JSON) in row-major order
http://www.bom.gov.au/fwo/IDD60801/IDD60801.94127.json